Time;durP1;ratioP1;P1;durP2;ratioP2;P2;SDS_P1;SDS_P2;PMS_P1;PMS_P2;Temp;Humidity;BMP_temperature;BMP_pressure;BME280_temperature;BME280_humidity;BME280_pressure;Samples;Min_cycle;Max_cycle;Signal;HPM_P1;HPM_P2
2022/12/27 00:01:32;;;;;;;3.25;2.83;;;;;;;14.07;52.71;93631.50;4968143;28;20488;-90
2022/12/27 00:03:57;;;;;;;6.03;3.83;;;;;;;14.10;52.57;93633.22;4943460;29;20559;-92
2022/12/27 00:06:23;;;;;;;4.53;3.47;;;;;;;14.11;52.69;93639.41;4958495;28;20039;-89
2022/12/27 00:08:49;;;;;;;3.55;2.90;;;;;;;14.11;52.55;93645.59;4938481;29;20079;-92
2022/12/27 00:11:16;;;;;;;3.45;3.15;;;;;;;14.12;52.47;93649.06;4949882;28;20126;-92
2022/12/27 00:13:42;;;;;;;4.85;3.40;;;;;;;14.11;52.61;93661.16;4941178;28;20042;-91
2022/12/27 00:16:09;;;;;;;4.70;3.67;;;;;;;14.10;52.62;93657.69;4947677;28;20036;-87
2022/12/27 00:18:34;;;;;;;4.97;3.75;;;;;;;14.09;52.69;93653.47;4961048;28;20047;-92
2022/12/27 00:21:00;;;;;;;4.88;3.38;;;;;;;14.11;52.60;93647.56;4951444;28;20133;-91
2022/12/27 00:23:26;;;;;;;4.07;3.05;;;;;;;14.12;52.46;93657.22;4939828;28;20495;-89
2022/12/27 00:25:51;;;;;;;5.05;3.55;;;;;;;14.08;52.53;93663.59;4941330;29;20059;-91
2022/12/27 00:28:16;;;;;;;4.47;3.50;;;;;;;14.13;52.38;93669.59;4960704;28;20041;-88
2022/12/27 00:30:42;;;;;;;4.10;3.38;;;;;;;14.13;52.54;93672.31;4959070;28;20767;-92
2022/12/27 00:33:08;;;;;;;4.68;3.63;;;;;;;14.13;52.63;93675.03;4952449;28;20078;-91
2022/12/27 00:35:33;;;;;;;4.22;3.58;;;;;;;14.11;52.46;93680.19;4952230;28;20035;-91
2022/12/27 00:37:58;;;;;;;5.40;3.72;;;;;;;14.10;52.62;93675.97;4951923;28;20026;-92
2022/12/27 00:40:24;;;;;;;5.32;3.50;;;;;;;14.08;52.80;93679.91;4976640;28;20106;-87
2022/12/27 00:42:49;;;;;;;5.70;3.90;;;;;;;14.12;52.71;93684.41;4966099;28;20031;-91
2022/12/27 00:45:16;;;;;;;4.85;3.72;;;;;;;14.11;52.29;93686.38;4953815;28;20106;-91
2022/12/27 00:47:41;;;;;;;4.47;3.60;;;;;;;14.06;52.65;93695.97;4966987;28;20062;-91
2022/12/27 00:50:07;;;;;;;5.00;3.83;;;;;;;14.07;52.82;93686.56;4952785;28;20489;-90
2022/12/27 00:52:32;;;;;;;4.25;3.35;;;;;;;14.11;52.58;93685.63;4943826;28;20055;-88
2022/12/27 00:54:57;;;;;;;4.05;3.50;;;;;;;14.11;52.57;93686.38;4936524;29;20454;-86
2022/12/27 00:57:23;;;;;;;4.60;3.50;;;;;;;14.11;52.59;93701.94;4967289;28;20077;-87
2022/12/27 00:59:48;;;;;;;4.82;3.10;;;;;;;14.13;52.77;93705.69;4958097;28;20057;-89
2022/12/27 01:02:14;;;;;;;4.47;3.67;;;;;;;14.12;52.24;93703.44;4957954;28;20055;-91
2022/12/27 01:04:39;;;;;;;4.50;3.55;;;;;;;14.08;52.61;93690.03;4970225;28;20046;-91
2022/12/27 01:07:04;;;;;;;4.85;3.65;;;;;;;14.08;52.73;93709.81;4938902;28;20433;-91
2022/12/27 01:09:30;;;;;;;4.75;3.63;;;;;;;14.06;52.86;93714.25;4967449;28;20109;-92
2022/12/27 01:11:55;;;;;;;4.22;3.17;;;;;;;14.06;52.71;93717.72;4942249;28;20039;-92
2022/12/27 01:14:21;;;;;;;3.75;3.17;;;;;;;14.08;52.58;93720.69;4919428;28;20055;-92
2022/12/27 01:16:46;;;;;;;5.28;3.53;;;;;;;14.06;52.80;93711.53;4943753;28;20393;-91
2022/12/27 01:19:11;;;;;;;3.67;3.25;;;;;;;14.07;52.62;93721.19;4952875;28;20095;-93
2022/12/27 01:21:37;;;;;;;4.32;2.97;;;;;;;14.11;52.54;93710.84;4971901;28;20497;-92
2022/12/27 01:24:04;;;;;;;4.75;3.20;;;;;;;14.11;52.25;93737.28;4964643;28;20055;-89
2022/12/27 01:26:29;;;;;;;4.88;3.63;;;;;;;14.08;52.56;93730.81;4946329;28;20049;-91
2022/12/27 01:28:55;;;;;;;4.00;2.78;;;;;;;14.10;53.01;93731.09;4956783;28;20043;-90
2022/12/27 01:31:24;;;;;;;4.72;3.47;;;;;;;14.08;52.48;93736.25;4982990;28;20050;-91
2022/12/27 01:33:53;;;;;;;3.80;3.00;;;;;;;14.06;52.58;93738.72;4939580;28;20053;-91
2022/12/27 01:36:19;;;;;;;3.67;3.28;;;;;;;14.11;52.44;93738.03;4944782;28;20031;-92
2022/12/27 01:38:46;;;;;;;4.60;3.05;;;;;;;14.08;52.47;93736.25;4937602;28;20054;-91
2022/12/27 01:44:39;;;;;;;3.95;3.10;;;;;;;14.07;52.62;93754.53;4961878;28;20109;-91
2022/12/27 01:47:11;;;;;;;4.95;3.55;;;;;;;14.10;52.46;93736.53;4967840;28;20050;-89
2022/12/27 01:49:37;;;;;;;4.43;3.13;;;;;;;14.10;52.61;93747.41;4946755;28;20043;-92
2022/12/27 01:52:03;;;;;;;4.85;3.35;;;;;;;14.07;52.47;93743.66;4942117;28;20039;-88
2022/12/27 01:54:29;;;;;;;4.68;3.33;;;;;;;14.05;52.49;93740.69;4958615;28;20042;-88
2022/12/27 01:56:54;;;;;;;4.18;3.28;;;;;;;14.02;52.88;93749.78;4965718;28;20038;-92
2022/12/27 01:59:20;;;;;;;4.13;3.13;;;;;;;14.05;52.51;93758.97;4951226;28;20484;-90
2022/12/27 02:01:45;;;;;;;4.57;3.33;;;;;;;14.08;52.58;93755.28;4939487;28;20097;-91
2022/12/27 02:04:15;;;;;;;4.40;3.22;;;;;;;14.05;52.61;93751.56;4960615;28;20043;-92
2022/12/27 02:06:41;;;;;;;3.22;2.70;;;;;;;14.05;52.59;93773.31;4963811;28;20043;-92
2022/12/27 02:09:13;;;;;;;3.70;3.10;;;;;;;14.08;52.62;93769.63;4952956;28;20094;-89
2022/12/27 02:11:50;;;;;;;3.95;3.00;;;;;;;14.11;52.85;93770.66;4949139;29;20126;-92
2022/12/27 02:14:17;;;;;;;5.28;3.40;;;;;;;14.07;52.60;93781.00;4941424;28;20570;-93
2022/12/27 02:16:42;;;;;;;4.40;3.40;;;;;;;14.07;52.76;93770.84;4942498;29;20070;-92
2022/12/27 02:19:30;;;;;;;4.53;3.22;;;;;;;14.11;52.58;93780.78;4950015;28;20082;-87
2022/12/27 02:22:23;;;;;;;5.20;3.13;;;;;;;14.13;52.33;93781.81;4960765;28;20405;-89
2022/12/27 02:25:15;;;;;;;4.10;3.10;;;;;;;14.08;52.42;93777.03;4964770;28;20129;-91
2022/12/27 02:27:59;;;;;;;4.25;3.15;;;;;;;14.10;52.44;93784.72;4939132;28;20047;-90
2022/12/27 02:30:24;;;;;;;3.83;3.10;;;;;;;14.07;52.63;93789.16;4942193;28;20051;-91
2022/12/27 02:33:04;;;;;;;3.55;2.97;;;;;;;14.07;52.70;93794.59;4950086;28;20055;-87
2022/12/27 02:35:38;;;;;;;3.42;2.88;;;;;;;14.08;52.46;93796.81;4965797;28;20047;-93
2022/12/27 02:38:20;;;;;;;3.83;3.00;;;;;;;14.07;52.32;93787.16;4940302;28;20039;-92
2022/12/27 02:58:45;;;;;;;4.22;3.22;;;;;;;14.06;52.40;93820.28;4950673;28;20042;-92
2022/12/27 03:04:17;;;;;;;4.75;3.25;;;;;;;14.06;53.01;93823.00;4922292;28;20452;-91
2022/12/27 03:07:11;;;;;;;3.63;2.88;;;;;;;14.04;52.75;93820.75;4965990;28;20049;-92
2022/12/27 03:18:18;;;;;;;3.97;3.05;;;;;;;14.05;52.69;93835.84;4962319;28;20039;-92
2022/12/27 03:26:11;;;;;;;3.60;2.97;;;;;;;14.01;52.30;93854.31;4935113;28;20122;-92
2022/12/27 03:39:37;;;;;;;3.50;2.90;;;;;;;14.02;52.51;93893.09;4886189;29;20513;-92
2022/12/27 03:44:48;;;;;;;3.42;2.85;;;;;;;14.05;52.27;93897.59;4883088;29;20055;-88
2022/12/27 03:47:27;;;;;;;3.60;2.92;;;;;;;14.06;52.47;93912.69;4877452;29;20041;-88
2022/12/27 03:50:03;;;;;;;3.15;2.65;;;;;;;14.07;52.40;93914.19;4878818;29;20040;-91
2022/12/27 03:52:35;;;;;;;5.07;3.22;;;;;;;14.05;52.36;93930.22;4863493;29;20103;-90
2022/12/27 03:55:00;;;;;;;5.35;2.80;;;;;;;14.05;52.26;93935.66;4878594;29;20055;-92
2022/12/27 03:57:26;;;;;;;3.95;2.92;;;;;;;14.05;52.44;93927.50;4877732;29;20048;-90
2022/12/27 03:59:51;;;;;;;2.70;2.33;;;;;;;14.04;52.32;93926.00;4875795;29;20044;-92
2022/12/27 04:02:17;;;;;;;3.55;2.63;;;;;;;14.02;52.36;93931.91;4883226;29;20059;-87
2022/12/27 04:04:42;;;;;;;3.47;2.50;;;;;;;14.02;52.46;93942.78;4941145;28;20417;-90
2022/12/27 04:07:07;;;;;;;3.70;2.88;;;;;;;14.04;51.92;93955.91;4968037;28;20113;-90
2022/12/27 04:36:53;;;;;;;3.33;2.65;;;;;;;13.99;51.81;94010.91;4955112;28;20158;-92
2022/12/27 04:39:18;;;;;;;3.13;2.80;;;;;;;14.01;52.04;94008.47;4972665;28;20043;-93
2022/12/27 04:55:27;;;;;;;3.10;2.47;;;;;;;14.00;52.15;94037.63;4967061;28;20081;-92
2022/12/27 04:57:52;;;;;;;3.63;2.60;;;;;;;14.01;52.16;94036.41;4969593;28;20043;-89
2022/12/27 05:03:04;;;;;;;3.05;2.65;;;;;;;14.01;51.83;94044.56;4980859;28;20050;-88
2022/12/27 05:05:30;;;;;;;2.85;2.40;;;;;;;14.03;51.78;94060.41;4971276;28;20061;-92
2022/12/27 05:13:58;;;;;;;3.15;2.67;;;;;;;13.99;51.93;94073.44;4893013;29;20096;-90
2022/12/27 05:16:25;;;;;;;3.60;2.70;;;;;;;13.99;51.97;94068.00;4874138;29;20410;-91
2022/12/27 05:18:51;;;;;;;3.13;2.60;;;;;;;14.00;51.79;94069.50;4904487;29;20139;-91
2022/12/27 05:21:16;;;;;;;3.00;2.47;;;;;;;13.98;51.71;94089.00;4875867;29;20045;-93
2022/12/27 05:26:27;;;;;;;3.20;2.67;;;;;;;13.99;51.93;94095.19;4892291;29;20125;-91
2022/12/27 05:28:54;;;;;;;3.70;2.60;;;;;;;13.97;52.21;94092.94;4890584;29;20041;-90
2022/12/27 05:31:20;;;;;;;4.28;2.80;;;;;;;14.02;51.84;94086.09;4859792;29;20052;-91
2022/12/27 05:33:46;;;;;;;4.10;2.78;;;;;;;13.98;52.04;94094.44;4858913;29;20580;-88
2022/12/27 05:36:11;;;;;;;3.80;2.88;;;;;;;14.00;51.97;94094.72;4908539;29;20056;-91
2022/12/27 05:38:37;;;;;;;3.42;2.65;;;;;;;13.98;52.13;94105.31;4881274;29;20036;-91
2022/12/27 05:41:02;;;;;;;3.88;2.60;;;;;;;13.96;51.74;94098.81;4877561;29;20047;-87
2022/12/27 05:43:28;;;;;;;3.92;3.05;;;;;;;13.98;51.73;94112.72;4970320;28;20122;-93
2022/12/27 05:45:53;;;;;;;2.40;2.20;;;;;;;13.97;52.00;94111.19;4970101;28;20433;-92
2022/12/27 05:48:19;;;;;;;2.92;2.60;;;;;;;13.99;51.92;94112.25;4970177;28;20055;-93
2022/12/27 05:50:44;;;;;;;2.55;2.28;;;;;;;13.98;51.78;94102.59;4938269;28;20045;-87
2022/12/27 05:53:10;;;;;;;2.63;2.22;;;;;;;14.00;51.90;94119.19;4953522;28;20268;-91
2022/12/27 05:55:35;;;;;;;3.63;2.75;;;;;;;13.99;51.69;94123.13;4971082;28;20047;-91
2022/12/27 05:58:00;;;;;;;4.18;2.85;;;;;;;13.99;51.50;94130.53;4970726;28;20038;-92
2022/12/27 06:00:26;;;;;;;2.53;2.33;;;;;;;13.99;51.95;94125.84;4953567;28;20088;-93
2022/12/27 06:02:51;;;;;;;3.60;2.70;;;;;;;13.97;51.79;94139.13;4978135;28;20505;-90
2022/12/27 06:05:17;;;;;;;4.57;2.63;;;;;;;13.98;51.59;94135.19;4970854;28;20034;-91
2022/12/27 06:07:42;;;;;;;2.92;2.40;;;;;;;13.95;51.74;94136.13;4953976;28;20066;-87
2022/12/27 06:10:08;;;;;;;3.55;2.50;;;;;;;13.96;51.80;94143.06;4952839;28;20512;-94
2022/12/27 06:12:34;;;;;;;3.10;2.38;;;;;;;13.95;51.61;94143.53;4954402;28;20154;-94
2022/12/27 06:14:59;;;;;;;2.80;2.53;;;;;;;13.99;51.85;94152.25;4952342;28;20044;-92
2022/12/27 06:17:25;;;;;;;3.15;2.35;;;;;;;13.97;51.77;94163.59;4969662;28;20058;-90
2022/12/27 06:19:50;;;;;;;2.78;2.33;;;;;;;13.97;51.51;94166.31;4954307;28;20144;-88
2022/12/27 06:22:15;;;;;;;3.13;2.47;;;;;;;13.98;51.94;94169.78;4968885;28;20054;-92
2022/12/27 06:24:41;;;;;;;2.60;2.30;;;;;;;13.95;51.73;94185.06;4951185;29;20102;-90
2022/12/27 06:27:06;;;;;;;3.35;2.97;;;;;;;13.98;51.59;94186.09;4984150;28;20043;-91
2022/12/27 06:29:33;;;;;;;4.60;2.53;;;;;;;13.99;51.37;94190.31;4953360;28;20046;-92
2022/12/27 06:31:58;;;;;;;4.20;2.72;;;;;;;13.97;51.57;94190.78;4953523;28;20046;-90
2022/12/27 06:34:23;;;;;;;3.00;2.70;;;;;;;13.95;51.95;94182.34;4953225;28;20583;-90
2022/12/27 06:36:50;;;;;;;2.85;2.17;;;;;;;13.99;51.75;94180.19;4950272;28;20055;-91
2022/12/27 06:39:18;;;;;;;3.35;2.58;;;;;;;13.96;51.51;94189.28;4964291;28;20046;-91
2022/12/27 06:41:44;;;;;;;4.07;2.63;;;;;;;13.97;51.37;94192.75;4954067;28;20136;-92
2022/12/27 06:44:09;;;;;;;2.88;2.30;;;;;;;13.96;51.74;94189.28;4969175;28;20047;-91
2022/12/27 06:46:34;;;;;;;3.15;2.53;;;;;;;13.98;51.54;94199.69;4950144;28;20114;-92
2022/12/27 06:49:00;;;;;;;2.95;2.28;;;;;;;13.98;51.27;94194.25;4950805;28;20453;-92
2022/12/27 06:51:25;;;;;;;2.92;2.40;;;;;;;13.99;51.53;94212.81;4999841;28;20058;-88
2022/12/27 06:53:51;;;;;;;3.00;2.40;;;;;;;14.00;51.53;94200.72;4937120;28;20050;-91
2022/12/27 06:56:18;;;;;;;2.67;2.38;;;;;;;14.00;51.55;94208.88;4955924;28;20051;-91
2022/12/27 06:58:44;;;;;;;2.67;2.35;;;;;;;13.97;51.30;94211.78;4969744;28;20043;-93
2022/12/27 07:01:16;;;;;;;2.90;2.17;;;;;;;13.95;51.65;94214.94;4934866;28;20039;-91
2022/12/27 07:03:41;;;;;;;3.38;2.40;;;;;;;13.93;51.61;94224.78;4953208;28;20093;-90
2022/12/27 07:06:08;;;;;;;2.90;2.47;;;;;;;13.93;51.20;94236.41;4952879;28;20042;-91
2022/12/27 07:08:34;;;;;;;3.00;2.53;;;;;;;13.91;51.84;94230.66;4933744;29;20082;-92
2022/12/27 07:11:00;;;;;;;3.15;2.20;;;;;;;13.96;51.18;94238.19;4985051;28;20074;-93
2022/12/27 07:13:26;;;;;;;2.55;2.15;;;;;;;13.95;51.39;94247.56;4952434;28;20134;-90
2022/12/27 07:15:51;;;;;;;3.15;2.67;;;;;;;13.96;51.53;94259.19;4952516;28;20047;-89
2022/12/27 07:18:16;;;;;;;2.63;2.13;;;;;;;13.97;51.21;94258.72;4955437;28;20051;-93
2022/12/27 07:20:42;;;;;;;2.70;2.25;;;;;;;13.98;51.36;94273.06;4937516;28;20039;-90
2022/12/27 07:23:07;;;;;;;2.83;2.40;;;;;;;13.95;50.91;94274.00;4981196;28;20051;-91
2022/12/27 07:25:33;;;;;;;4.28;2.90;;;;;;;13.95;51.15;94282.91;4948526;28;20043;-93
2022/12/27 07:27:58;;;;;;;2.75;2.35;;;;;;;13.95;51.39;94287.59;4950181;28;20517;-91
2022/12/27 07:30:24;;;;;;;3.30;2.38;;;;;;;13.98;51.14;94301.00;4931692;28;20043;-91
2022/12/27 07:32:49;;;;;;;3.00;2.50;;;;;;;13.98;51.05;94303.72;4932638;29;20055;-93
2022/12/27 07:35:14;;;;;;;3.08;2.33;;;;;;;13.96;51.31;94308.13;4915425;28;20046;-94
2022/12/27 07:37:40;;;;;;;2.95;2.40;;;;;;;13.95;51.15;94304.66;4948143;28;20054;-92
2022/12/27 07:40:06;;;;;;;2.63;2.35;;;;;;;13.96;50.83;94299.97;4933883;28;20035;-91
2022/12/27 07:42:31;;;;;;;2.10;1.90;;;;;;;13.94;51.10;94297.72;4955467;28;20035;-89
2022/12/27 07:44:58;;;;;;;3.25;2.30;;;;;;;13.99;51.23;94318.06;4932268;28;20054;-92
2022/12/27 07:47:23;;;;;;;3.97;2.72;;;;;;;13.98;51.29;94313.84;4945771;28;20046;-92
2022/12/27 07:49:48;;;;;;;3.63;2.58;;;;;;;13.97;51.04;94312.34;4916751;29;20043;-90
2022/12/27 07:52:14;;;;;;;3.03;2.15;;;;;;;13.97;50.95;94312.34;4923274;28;20039;-93
2022/12/27 07:54:40;;;;;;;2.97;2.47;;;;;;;13.96;50.96;94310.84;4948250;28;20113;-92
2022/12/27 07:57:06;;;;;;;2.95;2.40;;;;;;;13.95;51.15;94296.50;4956967;28;20517;-91
2022/12/27 07:59:31;;;;;;;2.35;2.08;;;;;;;13.98;50.87;94302.97;4953410;28;20050;-94
2022/12/27 08:02:03;;;;;;;2.40;2.20;;;;;;;14.00;50.71;94306.00;4932994;29;20047;-92
2022/12/27 08:04:28;;;;;;;2.67;2.15;;;;;;;13.99;50.99;94299.81;4982675;28;20298;-93
2022/12/27 08:07:07;;;;;;;2.65;2.42;;;;;;;14.04;50.69;94309.31;4949017;28;20044;-92
2022/12/27 08:09:35;;;;;;;3.40;2.50;;;;;;;14.05;50.93;94297.22;4952354;28;20043;-91
2022/12/27 08:12:00;;;;;;;3.75;2.63;;;;;;;14.03;50.77;94299.63;4949137;28;20509;-90
2022/12/27 08:14:26;;;;;;;4.25;2.40;;;;;;;14.01;50.46;94305.53;4967437;28;20105;-91
2022/12/27 08:16:51;;;;;;;2.80;2.38;;;;;;;14.03;51.19;94307.78;4935663;28;20055;-86
2022/12/27 08:19:17;;;;;;;2.90;2.45;;;;;;;14.04;50.76;94310.06;4952185;28;20035;-92
2022/12/27 08:21:42;;;;;;;2.85;2.22;;;;;;;14.02;50.71;94315.19;4967779;28;20059;-92
2022/12/27 08:24:07;;;;;;;3.53;2.78;;;;;;;14.02;50.67;94322.59;4948953;28;20062;-91
2022/12/27 08:26:33;;;;;;;3.40;2.25;;;;;;;14.04;50.75;94328.34;4984429;28;20113;-90
2022/12/27 08:28:58;;;;;;;3.03;2.70;;;;;;;14.05;50.26;94333.31;4937453;28;20425;-94
2022/12/27 08:31:24;;;;;;;3.10;2.10;;;;;;;14.07;50.26;94339.00;4999801;28;20057;-91
2022/12/27 08:33:50;;;;;;;3.47;2.55;;;;;;;14.08;50.37;94337.81;4971763;28;20051;-93
2022/12/27 08:36:15;;;;;;;2.85;2.05;;;;;;;14.12;50.54;94337.66;4970956;28;20047;-92
2022/12/27 08:38:41;;;;;;;3.75;2.63;;;;;;;14.12;50.30;94324.06;4936763;29;20046;-90
2022/12/27 08:41:06;;;;;;;2.70;2.25;;;;;;;14.17;50.12;94336.28;4976164;28;20055;-91
2022/12/27 08:43:31;;;;;;;3.53;2.45;;;;;;;14.21;49.99;94334.13;4955924;28;20050;-90
2022/12/27 08:46:01;;;;;;;3.00;2.47;;;;;;;14.17;50.33;94345.19;4955801;28;20046;-90
2022/12/27 08:48:27;;;;;;;2.30;2.10;;;;;;;14.14;50.20;94337.94;4951978;28;20041;-85
2022/12/27 08:50:53;;;;;;;2.17;1.90;;;;;;;14.16;49.83;94340.94;4940493;28;20118;-85
2022/12/27 08:53:18;;;;;;;3.20;1.83;;;;;;;14.17;50.16;94345.19;4948954;28;20098;-92
2022/12/27 08:55:45;;;;;;;2.47;1.95;;;;;;;14.15;50.04;94352.28;4935690;28;20039;-90
2022/12/27 08:58:11;;;;;;;2.10;1.90;;;;;;;14.15;50.06;94358.47;4954598;28;20038;-85
2022/12/27 09:00:36;;;;;;;2.47;2.13;;;;;;;14.18;50.00;94354.84;4974658;28;20066;-92
2022/12/27 09:03:02;;;;;;;2.67;2.17;;;;;;;14.18;50.18;94356.81;4955175;28;20040;-91
2022/12/27 09:05:31;;;;;;;4.15;1.90;;;;;;;14.12;50.28;94361.34;4972224;28;20105;-86
2022/12/27 09:07:57;;;;;;;3.65;2.20;;;;;;;14.13;50.41;94352.75;4972613;28;20085;-92
2022/12/27 09:10:23;;;;;;;2.65;2.25;;;;;;;14.12;50.36;94348.53;4970578;28;20076;-86
2022/12/27 09:12:50;;;;;;;3.30;2.65;;;;;;;14.17;50.10;94361.50;4970915;28;20054;-89
2022/12/27 09:15:15;;;;;;;3.03;2.45;;;;;;;14.18;50.18;94354.84;4938530;28;20031;-88
2022/12/27 09:17:42;;;;;;;3.55;2.30;;;;;;;14.21;49.95;94358.63;4971090;28;20043;-92
2022/12/27 09:20:10;;;;;;;2.60;2.00;;;;;;;14.21;50.28;94369.50;4976092;28;20053;-86
2022/12/27 09:22:36;;;;;;;3.03;2.00;;;;;;;14.17;50.23;94366.94;4978098;28;20042;-89
2022/12/27 09:25:01;;;;;;;2.47;2.28;;;;;;;14.20;49.96;94371.47;4963436;28;20031;-90
2022/12/27 09:27:27;;;;;;;2.65;1.80;;;;;;;14.20;50.13;94370.69;4956803;28;20053;-89
2022/12/27 09:29:52;;;;;;;2.78;2.10;;;;;;;14.13;50.06;94365.59;4954685;28;20047;-89
2022/12/27 09:32:18;;;;;;;3.47;2.60;;;;;;;14.19;49.86;94363.75;4948299;28;20082;-90
2022/12/27 09:34:43;;;;;;;2.03;1.80;;;;;;;14.11;50.37;94357.88;4980302;28;20073;-89
2022/12/27 09:37:08;;;;;;;2.70;2.28;;;;;;;14.17;50.17;94364.22;4953529;28;20051;-87
2022/12/27 09:39:35;;;;;;;4.13;2.40;;;;;;;14.19;50.03;94374.63;4953896;28;20421;-90
2022/12/27 09:42:11;;;;;;;2.50;2.28;;;;;;;14.16;50.45;94367.38;4971022;28;20047;-87
2022/12/27 09:44:57;;;;;;;2.80;2.15;;;;;;;14.16;50.38;94368.16;4969565;28;20038;-89
2022/12/27 09:47:28;;;;;;;2.55;2.20;;;;;;;14.17;50.06;94366.94;4968879;28;20089;-88
2022/12/27 09:50:01;;;;;;;3.05;2.28;;;;;;;14.17;50.31;94366.19;4956542;28;20077;-90
2022/12/27 09:52:27;;;;;;;5.32;2.42;;;;;;;14.17;50.15;94361.50;4953658;28;20039;-88
2022/12/27 09:55:04;;;;;;;2.95;2.40;;;;;;;14.20;50.24;94365.25;4953677;28;20081;-87
2022/12/27 09:57:39;;;;;;;2.35;2.10;;;;;;;14.22;50.21;94368.28;4952830;28;20456;-88
2022/12/27 10:00:13;;;;;;;3.00;2.05;;;;;;;14.23;49.95;94369.78;4933676;28;20043;-87
2022/12/27 10:02:39;;;;;;;3.28;2.38;;;;;;;14.17;50.15;94372.38;4969376;28;20073;-87
2022/12/27 10:05:05;;;;;;;2.95;1.98;;;;;;;14.22;49.89;94362.84;4937665;28;20035;-90
2022/12/27 10:08:09;;;;;;;2.28;2.05;;;;;;;14.23;50.04;94362.38;4962673;28;20027;-88
2022/12/27 10:10:48;;;;;;;3.22;2.10;;;;;;;14.23;50.13;94361.63;4941503;28;20039;-88
2022/12/27 10:13:35;;;;;;;6.10;2.35;;;;;;;14.21;49.67;94358.63;4948822;28;20054;-89
2022/12/27 10:16:06;;;;;;;3.80;2.25;;;;;;;14.20;50.30;94357.09;4937852;28;20043;-88
2022/12/27 10:18:56;;;;;;;4.03;2.38;;;;;;;14.16;50.23;94353.78;4959164;28;20043;-90
2022/12/27 10:21:23;;;;;;;2.63;2.15;;;;;;;14.13;50.12;94355.47;4980489;28;20053;-85
2022/12/27 10:23:53;;;;;;;2.85;1.90;;;;;;;14.12;50.08;94359.41;4922266;28;20080;-87
2022/12/27 10:26:18;;;;;;;3.83;2.13;;;;;;;14.08;49.71;94356.09;4950876;28;20038;-90
2022/12/27 10:28:46;;;;;;;3.88;2.05;;;;;;;14.05;49.75;94357.03;4918517;29;20501;-89
2022/12/27 10:31:15;;;;;;;7.90;2.80;;;;;;;14.04;49.09;94358.25;4932895;29;20143;-89
2022/12/27 10:33:41;;;;;;;8.68;2.97;;;;;;;14.05;49.43;94349.63;4949677;28;20101;-88
2022/12/27 10:36:10;;;;;;;8.18;2.60;;;;;;;14.06;49.30;94361.25;4941619;28;20046;-90
2022/12/27 10:38:35;;;;;;;2.95;2.15;;;;;;;14.08;50.28;94351.41;4956805;28;20556;-89
2022/12/27 10:41:29;;;;;;;2.92;2.20;;;;;;;14.15;50.26;94347.59;4940051;28;20047;-89
2022/12/27 10:43:55;;;;;;;3.45;1.83;;;;;;;14.15;50.22;94360.44;4944865;28;20044;-86
2022/12/27 10:46:28;;;;;;;11.13;2.58;;;;;;;14.12;49.73;94348.53;4940726;28;20050;-90
2022/12/27 10:49:03;;;;;;;6.03;2.30;;;;;;;14.15;50.12;94352.28;4942623;28;20059;-87
2022/12/27 10:51:36;;;;;;;3.70;2.80;;;;;;;14.15;50.34;94346.84;4956310;28;20054;-87
2022/12/27 10:54:02;;;;;;;3.50;2.42;;;;;;;14.11;50.39;94351.69;4958659;28;20074;-87
2022/12/27 10:56:34;;;;;;;4.18;2.08;;;;;;;14.12;50.38;94345.03;4939668;28;20107;-89
2022/12/27 10:59:03;;;;;;;4.18;2.35;;;;;;;14.12;50.29;94336.88;4977127;28;20053;-89
2022/12/27 11:01:29;;;;;;;4.63;2.28;;;;;;;14.12;50.49;94351.25;4953121;28;20053;-90
2022/12/27 11:04:13;;;;;;;3.78;2.10;;;;;;;14.13;50.15;94343.84;4962383;28;20047;-91
2022/12/27 11:06:38;;;;;;;4.28;2.72;;;;;;;14.10;50.01;94348.22;4968896;28;20047;-87
2022/12/27 11:09:25;;;;;;;5.13;2.67;;;;;;;14.13;50.39;94354.72;4965218;28;20381;-88
2022/12/27 11:11:50;;;;;;;4.00;2.15;;;;;;;14.12;50.16;94348.53;4969443;28;20201;-87
2022/12/27 11:14:17;;;;;;;8.50;2.63;;;;;;;14.13;49.97;94341.13;4942849;28;20493;-88
2022/12/27 11:16:42;;;;;;;12.05;3.33;;;;;;;14.12;50.33;94351.25;4938593;28;20054;-89
2022/12/27 11:19:18;;;;;;;10.18;2.50;;;;;;;14.08;50.53;94354.13;4951436;28;20425;-89
2022/12/27 11:21:43;;;;;;;8.55;3.03;;;;;;;14.10;50.34;94347.47;4962837;28;20039;-88
2022/12/27 11:24:12;;;;;;;5.82;2.65;;;;;;;14.11;50.52;94336.13;4950938;28;20071;-90
2022/12/27 11:26:49;;;;;;;4.32;2.20;;;;;;;14.11;50.28;94338.84;4932825;29;20040;-87
2022/12/27 11:29:15;;;;;;;5.43;2.00;;;;;;;14.11;50.20;94330.69;4939676;29;20070;-89
2022/12/27 11:31:45;;;;;;;8.63;2.63;;;;;;;14.10;50.24;94329.19;4934648;29;20054;-88
2022/12/27 11:34:19;;;;;;;3.97;2.15;;;;;;;14.10;50.15;94329.19;4943215;28;20405;-91
2022/12/27 11:36:47;;;;;;;5.40;2.35;;;;;;;14.11;50.25;94329.94;4946156;28;20047;-90
2022/12/27 11:39:44;;;;;;;5.45;2.53;;;;;;;14.13;50.18;94332.97;4935040;28;20125;-90
2022/12/27 11:42:37;;;;;;;7.20;2.83;;;;;;;14.14;49.73;94324.34;4951495;28;20207;-89
2022/12/27 11:45:17;;;;;;;8.23;2.45;;;;;;;14.14;50.36;94320.88;4967396;28;20432;-88
2022/12/27 11:47:46;;;;;;;4.07;2.55;;;;;;;14.12;50.34;94321.31;4952624;28;20049;-90
2022/12/27 11:50:27;;;;;;;2.97;2.28;;;;;;;14.13;50.19;94309.25;4941575;28;20559;-88
2022/12/27 11:53:13;;;;;;;3.72;2.25;;;;;;;14.13;49.91;94311.97;4958770;28;20504;-89
2022/12/27 11:56:16;;;;;;;7.65;2.33;;;;;;;14.14;50.13;94304.56;4961695;28;20485;-90
2022/12/27 11:59:06;;;;;;;7.80;2.90;;;;;;;14.12;50.21;94306.97;4953141;28;20047;-90
2022/12/27 12:02:05;;;;;;;5.53;2.67;;;;;;;14.12;50.40;94306.97;4937123;28;20047;-89
2022/12/27 12:04:44;;;;;;;9.68;2.58;;;;;;;14.08;50.21;94305.19;4937592;29;20043;-89
2022/12/27 12:07:34;;;;;;;10.00;2.28;;;;;;;14.10;50.18;94312.88;4962256;28;20042;-91
2022/12/27 12:10:26;;;;;;;3.55;2.35;;;;;;;14.10;50.34;94317.56;4963668;28;20521;-87
2022/12/27 12:13:00;;;;;;;5.15;2.53;;;;;;;14.11;50.43;94310.91;4955453;28;20575;-88
2022/12/27 12:15:56;;;;;;;5.20;2.60;;;;;;;14.11;50.09;94319.06;4950460;28;20121;-88
2022/12/27 12:18:49;;;;;;;7.97;3.13;;;;;;;14.13;50.09;94311.22;4956049;28;20051;-90
2022/12/27 12:21:26;;;;;;;3.65;2.30;;;;;;;14.14;50.12;94304.56;4968232;28;20036;-90
2022/12/27 12:24:16;;;;;;;4.43;2.45;;;;;;;14.17;50.17;94314.50;4948384;28;20043;-89
2022/12/27 12:26:49;;;;;;;5.03;2.43;;;;;;;14.14;50.15;94310.00;4941875;28;20060;-90
2022/12/27 12:29:38;;;;;;;4.03;2.45;;;;;;;14.13;50.07;94311.97;4947356;28;20545;-88
2022/12/27 12:32:23;;;;;;;6.30;2.60;;;;;;;14.15;50.11;94303.34;4951259;28;20090;-90
2022/12/27 12:34:54;;;;;;;5.75;2.45;;;;;;;14.08;50.08;94305.19;4950535;28;20042;-90
2022/12/27 12:37:28;;;;;;;6.65;2.55;;;;;;;14.10;50.09;94303.97;4938628;28;20071;-90
2022/12/27 12:40:23;;;;;;;9.13;2.58;;;;;;;14.12;50.30;94312.41;4950247;28;20047;-88
2022/12/27 12:42:56;;;;;;;5.38;2.70;;;;;;;14.11;50.06;94302.75;4953506;28;20130;-88
2022/12/27 12:45:34;;;;;;;5.55;2.47;;;;;;;14.11;49.97;94306.22;4983867;28;20130;-91
2022/12/27 12:48:13;;;;;;;4.30;2.50;;;;;;;14.11;50.11;94300.03;4946695;28;20061;-89
2022/12/27 12:51:06;;;;;;;4.75;2.47;;;;;;;14.12;50.02;94282.50;4950608;28;20511;-89
2022/12/27 12:53:45;;;;;;;9.73;2.78;;;;;;;14.13;50.13;94286.72;4940926;28;20043;-90
2022/12/27 12:56:23;;;;;;;10.10;2.53;;;;;;;14.13;50.18;94278.56;4976094;28;20405;-86
2022/12/27 12:58:54;;;;;;;4.05;2.45;;;;;;;14.12;50.10;94271.63;4957498;28;20054;-90
2022/12/27 13:01:35;;;;;;;8.27;3.03;;;;;;;14.12;50.27;94268.91;4982355;28;20077;-90
2022/12/27 13:04:30;;;;;;;;;;;;;;;14.17;50.12;94265.56;4975839;28;20054;-86
2022/12/27 13:07:23;;;;;;;3.38;2.30;;;;;;;14.11;50.12;94249.13;4894473;29;20421;-91
2022/12/27 13:10:12;;;;;;;5.68;2.45;;;;;;;14.11;50.22;94257.28;4892258;29;20056;-87
2022/12/27 13:12:53;;;;;;;5.72;2.38;;;;;;;14.11;50.06;94254.56;4895922;29;20032;-90
2022/12/27 13:15:31;;;;;;;4.28;2.00;;;;;;;14.12;50.06;94260.75;4909429;29;20076;-90
2022/12/27 13:18:27;;;;;;;4.47;2.53;;;;;;;14.11;49.96;94270.88;4878529;29;20128;-89
2022/12/27 13:21:15;;;;;;;5.32;2.80;;;;;;;14.10;50.10;94269.38;4906640;29;20041;-87
2022/12/27 13:23:44;;;;;;;3.83;2.30;;;;;;;14.13;50.35;94270.41;4888566;29;20155;-87
2022/12/27 13:26:35;;;;;;;4.25;2.10;;;;;;;14.12;50.04;94277.81;4880333;29;20040;-88
2022/12/27 13:29:22;;;;;;;;;;;;;;;14.17;49.89;94262.84;4887372;29;20052;-89
2022/12/27 13:32:06;;;;;;;3.15;1.92;;;;;;;14.13;50.06;94270.41;4894259;29;19930;-90
2022/12/27 13:35:06;;;;;;;4.75;2.08;;;;;;;14.08;50.12;94274.53;4899863;29;20072;-88